sensor_id;sensor_type;location;lat;lon;timestamp;P1;durP1;ratioP1;P2;durP2;ratioP2
6834;SDS011;3455;42.150;24.734;2023-01-20T00:00:42;2.30;;;1.10;;
6834;SDS011;3455;42.150;24.734;2023-01-20T00:03:09;4.10;;;1.67;;
6834;SDS011;3455;42.150;24.734;2023-01-20T00:05:35;7.37;;;1.50;;
6834;SDS011;3455;42.150;24.734;2023-01-20T00:08:03;3.00;;;1.10;;
6834;SDS011;3455;42.150;24.734;2023-01-20T00:10:31;9.43;;;1.43;;
6834;SDS011;3455;42.150;24.734;2023-01-20T00:12:57;4.13;;;1.70;;
6834;SDS011;3455;42.150;24.734;2023-01-20T00:15:24;5.13;;;1.03;;
6834;SDS011;3455;42.150;24.734;2023-01-20T00:17:51;4.20;;;1.23;;
6834;SDS011;3455;42.150;24.734;2023-01-20T00:20:18;2.80;;;1.10;;
6834;SDS011;3455;42.150;24.734;2023-01-20T00:22:45;4.23;;;1.20;;
6834;SDS011;3455;42.150;24.734;2023-01-20T00:25:13;3.40;;;1.00;;
6834;SDS011;3455;42.150;24.734;2023-01-20T00:27:40;7.00;;;1.50;;
6834;SDS011;3455;42.150;24.734;2023-01-20T00:30:07;2.77;;;1.10;;
6834;SDS011;3455;42.150;24.734;2023-01-20T00:32:35;1.23;;;1.13;;
6834;SDS011;3455;42.150;24.734;2023-01-20T00:35:03;2.53;;;1.00;;
6834;SDS011;3455;42.150;24.734;2023-01-20T00:37:30;1.30;;;1.20;;
6834;SDS011;3455;42.150;24.734;2023-01-20T00:39:57;2.67;;;1.00;;
6834;SDS011;3455;42.150;24.734;2023-01-20T00:42:25;3.13;;;1.10;;
6834;SDS011;3455;42.150;24.734;2023-01-20T00:44:52;3.20;;;1.13;;
6834;SDS011;3455;42.150;24.734;2023-01-20T00:47:18;3.57;;;1.33;;
6834;SDS011;3455;42.150;24.734;2023-01-20T00:49:45;2.80;;;1.30;;
6834;SDS011;3455;42.150;24.734;2023-01-20T00:52:12;1.73;;;1.00;;
6834;SDS011;3455;42.150;24.734;2023-01-20T00:54:39;4.83;;;1.07;;
6834;SDS011;3455;42.150;24.734;2023-01-20T00:57:06;5.23;;;1.63;;
6834;SDS011;3455;42.150;24.734;2023-01-20T00:59:34;4.37;;;1.07;;
6834;SDS011;3455;42.150;24.734;2023-01-20T01:02:01;6.23;;;1.33;;
6834;SDS011;3455;42.150;24.734;2023-01-20T01:04:28;2.07;;;1.23;;
6834;SDS011;3455;42.150;24.734;2023-01-20T01:06:55;4.67;;;1.23;;
6834;SDS011;3455;42.150;24.734;2023-01-20T01:09:22;7.10;;;1.40;;
6834;SDS011;3455;42.150;24.734;2023-01-20T01:11:48;3.23;;;1.27;;
6834;SDS011;3455;42.150;24.734;2023-01-20T01:14:17;3.37;;;1.07;;
6834;SDS011;3455;42.150;24.734;2023-01-20T01:16:45;3.10;;;1.40;;
6834;SDS011;3455;42.150;24.734;2023-01-20T01:19:11;2.90;;;1.30;;
6834;SDS011;3455;42.150;24.734;2023-01-20T01:21:38;1.93;;;1.10;;
6834;SDS011;3455;42.150;24.734;2023-01-20T01:24:05;1.33;;;0.77;;
6834;SDS011;3455;42.150;24.734;2023-01-20T01:26:31;2.00;;;0.93;;
6834;SDS011;3455;42.150;24.734;2023-01-20T01:28:58;1.17;;;0.80;;
6834;SDS011;3455;42.150;24.734;2023-01-20T01:31:25;3.43;;;1.00;;
6834;SDS011;3455;42.150;24.734;2023-01-20T01:33:53;2.05;;;0.60;;
6834;SDS011;3455;42.150;24.734;2023-01-20T01:36:20;1.27;;;1.00;;
6834;SDS011;3455;42.150;24.734;2023-01-20T01:38:46;2.43;;;0.87;;
6834;SDS011;3455;42.150;24.734;2023-01-20T01:41:13;2.03;;;1.00;;
6834;SDS011;3455;42.150;24.734;2023-01-20T01:46:28;1.30;;;0.93;;
6834;SDS011;3455;42.150;24.734;2023-01-20T01:48:56;1.53;;;0.70;;
6834;SDS011;3455;42.150;24.734;2023-01-20T01:51:26;1.70;;;1.07;;
6834;SDS011;3455;42.150;24.734;2023-01-20T01:53:57;4.20;;;1.00;;
6834;SDS011;3455;42.150;24.734;2023-01-20T01:56:31;5.83;;;1.30;;
6834;SDS011;3455;42.150;24.734;2023-01-20T01:58:59;1.83;;;0.53;;
6834;SDS011;3455;42.150;24.734;2023-01-20T02:01:28;2.57;;;0.50;;
6834;SDS011;3455;42.150;24.734;2023-01-20T02:03:58;6.87;;;0.50;;
6834;SDS011;3455;42.150;24.734;2023-01-20T02:06:31;3.77;;;0.63;;
6834;SDS011;3455;42.150;24.734;2023-01-20T02:09:00;4.47;;;0.40;;
6834;SDS011;3455;42.150;24.734;2023-01-20T02:11:30;0.50;;;0.27;;
6834;SDS011;3455;42.150;24.734;2023-01-20T02:14:04;2.10;;;0.23;;
6834;SDS011;3455;42.150;24.734;2023-01-20T02:16:33;0.20;;;0.20;;
6834;SDS011;3455;42.150;24.734;2023-01-20T02:19:24;1.33;;;0.30;;
6834;SDS011;3455;42.150;24.734;2023-01-20T02:22:10;0.40;;;0.40;;
6834;SDS011;3455;42.150;24.734;2023-01-20T02:24:56;1.40;;;0.30;;
6834;SDS011;3455;42.150;24.734;2023-01-20T02:27:46;1.50;;;0.17;;
6834;SDS011;3455;42.150;24.734;2023-01-20T02:30:33;1.40;;;0.13;;
6834;SDS011;3455;42.150;24.734;2023-01-20T02:33:10;0.30;;;0.30;;
6834;SDS011;3455;42.150;24.734;2023-01-20T02:35:41;0.20;;;0.20;;
6834;SDS011;3455;42.150;24.734;2023-01-20T02:38:12;1.03;;;0.23;;
6834;SDS011;3455;42.150;24.734;2023-01-20T02:40:49;0.83;;;0.30;;
6834;SDS011;3455;42.150;24.734;2023-01-20T02:43:25;0.27;;;0.20;;
6834;SDS011;3455;42.150;24.734;2023-01-20T02:45:58;0.43;;;0.30;;
6834;SDS011;3455;42.150;24.734;2023-01-20T02:48:33;1.03;;;0.50;;
6834;SDS011;3455;42.150;24.734;2023-01-20T02:51:08;0.30;;;0.20;;
6834;SDS011;3455;42.150;24.734;2023-01-20T02:53:39;1.03;;;0.30;;
6834;SDS011;3455;42.150;24.734;2023-01-20T02:56:11;0.53;;;0.30;;
6834;SDS011;3455;42.150;24.734;2023-01-20T02:58:41;0.27;;;0.20;;
6834;SDS011;3455;42.150;24.734;2023-01-20T03:01:15;0.40;;;0.23;;
6834;SDS011;3455;42.150;24.734;2023-01-20T03:03:47;0.43;;;0.40;;
6834;SDS011;3455;42.150;24.734;2023-01-20T03:06:18;1.47;;;0.57;;
6834;SDS011;3455;42.150;24.734;2023-01-20T03:08:47;1.80;;;0.30;;
6834;SDS011;3455;42.150;24.734;2023-01-20T03:11:18;2.73;;;0.70;;
6834;SDS011;3455;42.150;24.734;2023-01-20T03:13:46;1.30;;;0.73;;
6834;SDS011;3455;42.150;24.734;2023-01-20T03:16:16;0.40;;;0.40;;
6834;SDS011;3455;42.150;24.734;2023-01-20T03:18:47;0.70;;;0.53;;
6834;SDS011;3455;42.150;24.734;2023-01-20T03:21:14;2.00;;;0.73;;
6834;SDS011;3455;42.150;24.734;2023-01-20T03:23:43;0.40;;;0.40;;
6834;SDS011;3455;42.150;24.734;2023-01-20T03:26:13;0.60;;;0.60;;
6834;SDS011;3455;42.150;24.734;2023-01-20T03:28:42;1.53;;;1.10;;
6834;SDS011;3455;42.150;24.734;2023-01-20T03:31:12;1.23;;;0.63;;
6834;SDS011;3455;42.150;24.734;2023-01-20T03:33:41;3.23;;;1.07;;
6834;SDS011;3455;42.150;24.734;2023-01-20T03:36:10;1.17;;;0.80;;
6834;SDS011;3455;42.150;24.734;2023-01-20T03:38:40;1.87;;;0.70;;
6834;SDS011;3455;42.150;24.734;2023-01-20T03:41:10;1.40;;;0.70;;
6834;SDS011;3455;42.150;24.734;2023-01-20T03:43:43;1.63;;;0.60;;
6834;SDS011;3455;42.150;24.734;2023-01-20T03:46:18;0.90;;;0.90;;
6834;SDS011;3455;42.150;24.734;2023-01-20T03:48:52;0.80;;;0.63;;
6834;SDS011;3455;42.150;24.734;2023-01-20T03:51:30;1.67;;;0.80;;
6834;SDS011;3455;42.150;24.734;2023-01-20T03:54:05;0.70;;;0.70;;
6834;SDS011;3455;42.150;24.734;2023-01-20T03:56:36;0.67;;;0.53;;
6834;SDS011;3455;42.150;24.734;2023-01-20T03:59:07;2.20;;;0.97;;
6834;SDS011;3455;42.150;24.734;2023-01-20T04:01:38;0.67;;;0.60;;
6834;SDS011;3455;42.150;24.734;2023-01-20T04:04:07;0.33;;;0.33;;
6834;SDS011;3455;42.150;24.734;2023-01-20T04:06:38;1.23;;;0.30;;
6834;SDS011;3455;42.150;24.734;2023-01-20T04:09:09;1.60;;;0.47;;
6834;SDS011;3455;42.150;24.734;2023-01-20T04:11:38;0.40;;;0.40;;
6834;SDS011;3455;42.150;24.734;2023-01-20T04:14:06;0.70;;;0.70;;
6834;SDS011;3455;42.150;24.734;2023-01-20T04:16:33;0.73;;;0.63;;
6834;SDS011;3455;42.150;24.734;2023-01-20T04:19:02;0.60;;;0.60;;
6834;SDS011;3455;42.150;24.734;2023-01-20T04:21:30;0.33;;;0.33;;
6834;SDS011;3455;42.150;24.734;2023-01-20T04:24:02;0.67;;;0.50;;
6834;SDS011;3455;42.150;24.734;2023-01-20T04:26:32;0.67;;;0.63;;
6834;SDS011;3455;42.150;24.734;2023-01-20T04:28:59;0.73;;;0.50;;
6834;SDS011;3455;42.150;24.734;2023-01-20T04:31:32;1.70;;;0.83;;
6834;SDS011;3455;42.150;24.734;2023-01-20T04:33:59;2.07;;;1.30;;
6834;SDS011;3455;42.150;24.734;2023-01-20T04:36:25;1.30;;;1.17;;
6834;SDS011;3455;42.150;24.734;2023-01-20T04:38:52;2.30;;;1.13;;
6834;SDS011;3455;42.150;24.734;2023-01-20T04:41:20;1.73;;;1.17;;
6834;SDS011;3455;42.150;24.734;2023-01-20T04:43:47;2.73;;;1.03;;
6834;SDS011;3455;42.150;24.734;2023-01-20T04:46:14;3.90;;;1.10;;
6834;SDS011;3455;42.150;24.734;2023-01-20T04:48:43;2.37;;;0.90;;
6834;SDS011;3455;42.150;24.734;2023-01-20T04:51:10;1.53;;;1.10;;
6834;SDS011;3455;42.150;24.734;2023-01-20T04:53:37;0.90;;;0.90;;
6834;SDS011;3455;42.150;24.734;2023-01-20T04:56:08;2.10;;;0.90;;
6834;SDS011;3455;42.150;24.734;2023-01-20T04:58:38;2.27;;;1.23;;
6834;SDS011;3455;42.150;24.734;2023-01-20T05:01:05;1.43;;;1.33;;
6834;SDS011;3455;42.150;24.734;2023-01-20T05:03:32;3.17;;;1.37;;
6834;SDS011;3455;42.150;24.734;2023-01-20T05:05:58;1.30;;;1.20;;
6834;SDS011;3455;42.150;24.734;2023-01-20T05:08:25;5.23;;;2.10;;
6834;SDS011;3455;42.150;24.734;2023-01-20T05:10:52;1.67;;;1.10;;
6834;SDS011;3455;42.150;24.734;2023-01-20T05:13:18;1.40;;;1.17;;
6834;SDS011;3455;42.150;24.734;2023-01-20T05:15:47;3.73;;;1.93;;
6834;SDS011;3455;42.150;24.734;2023-01-20T05:18:13;3.27;;;1.50;;
6834;SDS011;3455;42.150;24.734;2023-01-20T05:20:40;3.73;;;0.90;;
6834;SDS011;3455;42.150;24.734;2023-01-20T05:23:10;4.13;;;1.17;;
6834;SDS011;3455;42.150;24.734;2023-01-20T05:25:36;3.13;;;1.30;;
6834;SDS011;3455;42.150;24.734;2023-01-20T05:28:03;0.97;;;0.80;;
6834;SDS011;3455;42.150;24.734;2023-01-20T05:30:30;1.17;;;0.90;;
6834;SDS011;3455;42.150;24.734;2023-01-20T05:32:58;2.70;;;1.00;;
6834;SDS011;3455;42.150;24.734;2023-01-20T05:35:25;4.93;;;1.40;;
6834;SDS011;3455;42.150;24.734;2023-01-20T05:37:52;1.53;;;1.43;;
6834;SDS011;3455;42.150;24.734;2023-01-20T05:40:19;3.73;;;1.30;;
6834;SDS011;3455;42.150;24.734;2023-01-20T05:42:46;3.07;;;1.30;;
6834;SDS011;3455;42.150;24.734;2023-01-20T05:45:13;3.20;;;2.13;;
6834;SDS011;3455;42.150;24.734;2023-01-20T05:47:40;11.37;;;4.73;;
6834;SDS011;3455;42.150;24.734;2023-01-20T05:50:09;5.47;;;2.80;;
6834;SDS011;3455;42.150;24.734;2023-01-20T05:52:36;2.33;;;2.13;;
6834;SDS011;3455;42.150;24.734;2023-01-20T05:55:03;9.67;;;2.70;;
6834;SDS011;3455;42.150;24.734;2023-01-20T05:57:30;3.93;;;2.50;;
6834;SDS011;3455;42.150;24.734;2023-01-20T05:59:57;7.30;;;2.53;;
6834;SDS011;3455;42.150;24.734;2023-01-20T06:02:24;6.57;;;2.40;;
6834;SDS011;3455;42.150;24.734;2023-01-20T06:04:50;8.37;;;3.40;;
6834;SDS011;3455;42.150;24.734;2023-01-20T06:07:18;13.83;;;3.27;;
6834;SDS011;3455;42.150;24.734;2023-01-20T06:09:45;4.37;;;3.07;;
6834;SDS011;3455;42.150;24.734;2023-01-20T06:12:12;3.93;;;3.00;;
6834;SDS011;3455;42.150;24.734;2023-01-20T06:14:38;7.40;;;3.47;;
6834;SDS011;3455;42.150;24.734;2023-01-20T06:17:05;8.27;;;2.83;;
6834;SDS011;3455;42.150;24.734;2023-01-20T06:19:32;5.07;;;3.20;;
6834;SDS011;3455;42.150;24.734;2023-01-20T06:21:58;6.17;;;2.93;;
6834;SDS011;3455;42.150;24.734;2023-01-20T06:24:27;7.20;;;3.57;;
6834;SDS011;3455;42.150;24.734;2023-01-20T06:26:53;16.53;;;3.87;;
6834;SDS011;3455;42.150;24.734;2023-01-20T06:29:20;10.07;;;4.17;;
6834;SDS011;3455;42.150;24.734;2023-01-20T06:31:47;12.30;;;4.07;;
6834;SDS011;3455;42.150;24.734;2023-01-20T06:34:13;7.03;;;4.17;;
6834;SDS011;3455;42.150;24.734;2023-01-20T06:36:40;5.60;;;4.40;;
6834;SDS011;3455;42.150;24.734;2023-01-20T06:39:07;8.53;;;4.20;;
6834;SDS011;3455;42.150;24.734;2023-01-20T06:41:35;12.00;;;4.63;;
6834;SDS011;3455;42.150;24.734;2023-01-20T06:44:02;11.87;;;3.97;;
6834;SDS011;3455;42.150;24.734;2023-01-20T06:46:28;8.37;;;4.10;;
6834;SDS011;3455;42.150;24.734;2023-01-20T06:48:55;6.80;;;3.77;;
6834;SDS011;3455;42.150;24.734;2023-01-20T06:51:25;10.80;;;3.30;;
6834;SDS011;3455;42.150;24.734;2023-01-20T06:53:53;8.70;;;4.40;;
6834;SDS011;3455;42.150;24.734;2023-01-20T06:56:20;16.53;;;4.07;;
6834;SDS011;3455;42.150;24.734;2023-01-20T06:58:48;9.13;;;4.80;;
6834;SDS011;3455;42.150;24.734;2023-01-20T07:01:17;8.63;;;4.40;;
6834;SDS011;3455;42.150;24.734;2023-01-20T07:03:46;15.43;;;4.00;;
6834;SDS011;3455;42.150;24.734;2023-01-20T07:06:14;7.07;;;4.20;;
6834;SDS011;3455;42.150;24.734;2023-01-20T07:08:43;9.23;;;4.17;;
6834;SDS011;3455;42.150;24.734;2023-01-20T07:11:10;4.93;;;3.70;;
6834;SDS011;3455;42.150;24.734;2023-01-20T07:13:37;8.90;;;4.13;;
6834;SDS011;3455;42.150;24.734;2023-01-20T07:16:05;7.67;;;4.23;;
6834;SDS011;3455;42.150;24.734;2023-01-20T07:18:32;12.87;;;4.30;;
6834;SDS011;3455;42.150;24.734;2023-01-20T07:20:59;5.30;;;4.27;;
6834;SDS011;3455;42.150;24.734;2023-01-20T07:23:27;5.60;;;4.30;;
6834;SDS011;3455;42.150;24.734;2023-01-20T07:25:56;6.27;;;3.37;;
6834;SDS011;3455;42.150;24.734;2023-01-20T07:28:23;6.23;;;3.03;;
6834;SDS011;3455;42.150;24.734;2023-01-20T07:30:50;9.40;;;4.03;;
6834;SDS011;3455;42.150;24.734;2023-01-20T07:33:18;7.67;;;3.33;;
6834;SDS011;3455;42.150;24.734;2023-01-20T07:35:49;10.53;;;2.43;;
6834;SDS011;3455;42.150;24.734;2023-01-20T07:38:17;6.83;;;2.53;;
6834;SDS011;3455;42.150;24.734;2023-01-20T07:40:44;3.97;;;2.40;;
6834;SDS011;3455;42.150;24.734;2023-01-20T07:43:10;4.17;;;3.13;;
6834;SDS011;3455;42.150;24.734;2023-01-20T07:45:37;4.40;;;3.00;;
6834;SDS011;3455;42.150;24.734;2023-01-20T07:48:04;8.37;;;2.43;;
6834;SDS011;3455;42.150;24.734;2023-01-20T07:50:33;8.13;;;3.87;;
6834;SDS011;3455;42.150;24.734;2023-01-20T07:53:00;7.00;;;3.60;;
6834;SDS011;3455;42.150;24.734;2023-01-20T07:55:27;7.70;;;3.70;;
6834;SDS011;3455;42.150;24.734;2023-01-20T07:57:53;4.97;;;3.47;;
6834;SDS011;3455;42.150;24.734;2023-01-20T08:00:21;9.77;;;3.60;;
6834;SDS011;3455;42.150;24.734;2023-01-20T08:02:48;5.10;;;2.33;;
6834;SDS011;3455;42.150;24.734;2023-01-20T08:05:14;1.67;;;1.57;;
6834;SDS011;3455;42.150;24.734;2023-01-20T08:07:43;4.60;;;2.17;;
6834;SDS011;3455;42.150;24.734;2023-01-20T08:10:09;4.93;;;1.53;;
6834;SDS011;3455;42.150;24.734;2023-01-20T08:12:36;3.27;;;1.80;;
6834;SDS011;3455;42.150;24.734;2023-01-20T08:15:03;3.10;;;1.70;;
6834;SDS011;3455;42.150;24.734;2023-01-20T08:17:31;5.43;;;2.37;;
6834;SDS011;3455;42.150;24.734;2023-01-20T08:19:57;2.50;;;2.20;;
6834;SDS011;3455;42.150;24.734;2023-01-20T08:22:24;2.93;;;1.97;;
6834;SDS011;3455;42.150;24.734;2023-01-20T08:24:52;3.40;;;2.10;;
6834;SDS011;3455;42.150;24.734;2023-01-20T08:27:19;3.97;;;1.90;;
6834;SDS011;3455;42.150;24.734;2023-01-20T08:29:46;5.10;;;2.50;;
6834;SDS011;3455;42.150;24.734;2023-01-20T08:32:13;2.87;;;2.67;;
6834;SDS011;3455;42.150;24.734;2023-01-20T08:34:40;12.13;;;4.13;;
6834;SDS011;3455;42.150;24.734;2023-01-20T08:37:07;6.33;;;5.73;;
6834;SDS011;3455;42.150;24.734;2023-01-20T08:39:34;4.23;;;2.83;;
6834;SDS011;3455;42.150;24.734;2023-01-20T08:42:02;5.13;;;4.10;;
6834;SDS011;3455;42.150;24.734;2023-01-20T08:44:28;2.40;;;2.20;;
6834;SDS011;3455;42.150;24.734;2023-01-20T08:46:56;5.00;;;2.20;;
6834;SDS011;3455;42.150;24.734;2023-01-20T08:49:23;5.07;;;1.90;;
6834;SDS011;3455;42.150;24.734;2023-01-20T08:51:50;2.93;;;2.37;;
6834;SDS011;3455;42.150;24.734;2023-01-20T08:54:17;5.23;;;2.93;;
6834;SDS011;3455;42.150;24.734;2023-01-20T08:56:44;4.00;;;3.37;;
6834;SDS011;3455;42.150;24.734;2023-01-20T08:59:12;6.23;;;3.13;;
6834;SDS011;3455;42.150;24.734;2023-01-20T09:01:39;6.60;;;4.23;;
6834;SDS011;3455;42.150;24.734;2023-01-20T09:04:07;10.23;;;6.07;;
6834;SDS011;3455;42.150;24.734;2023-01-20T09:06:38;16.30;;;10.23;;
6834;SDS011;3455;42.150;24.734;2023-01-20T09:09:08;7.13;;;6.43;;
6834;SDS011;3455;42.150;24.734;2023-01-20T09:11:34;5.73;;;5.27;;
6834;SDS011;3455;42.150;24.734;2023-01-20T09:14:01;6.90;;;5.30;;
6834;SDS011;3455;42.150;24.734;2023-01-20T09:16:29;7.33;;;6.60;;
6834;SDS011;3455;42.150;24.734;2023-01-20T09:18:56;7.10;;;5.70;;
6834;SDS011;3455;42.150;24.734;2023-01-20T09:21:23;7.80;;;6.97;;
6834;SDS011;3455;42.150;24.734;2023-01-20T09:23:49;6.90;;;4.97;;
6834;SDS011;3455;42.150;24.734;2023-01-20T09:26:16;7.07;;;3.97;;
6834;SDS011;3455;42.150;24.734;2023-01-20T09:28:43;9.13;;;4.80;;
6834;SDS011;3455;42.150;24.734;2023-01-20T09:31:10;4.53;;;2.00;;
6834;SDS011;3455;42.150;24.734;2023-01-20T09:33:39;3.40;;;1.87;;
6834;SDS011;3455;42.150;24.734;2023-01-20T09:36:08;1.03;;;0.93;;
6834;SDS011;3455;42.150;24.734;2023-01-20T09:38:36;1.83;;;1.70;;
6834;SDS011;3455;42.150;24.734;2023-01-20T09:41:24;4.22;;;3.63;;
6834;SDS011;3455;42.150;24.734;2023-01-20T09:44:23;6.32;;;5.75;;
6834;SDS011;3455;42.150;24.734;2023-01-20T09:47:08;9.57;;;7.00;;
6834;SDS011;3455;42.150;24.734;2023-01-20T09:49:49;5.30;;;3.80;;
6834;SDS011;3455;42.150;24.734;2023-01-20T09:52:46;4.90;;;2.80;;
6834;SDS011;3455;42.150;24.734;2023-01-20T09:55:30;4.25;;;3.60;;
6834;SDS011;3455;42.150;24.734;2023-01-20T09:58:06;3.33;;;3.00;;
6834;SDS011;3455;42.150;24.734;2023-01-20T10:00:39;2.70;;;2.50;;
6834;SDS011;3455;42.150;24.734;2023-01-20T10:03:10;2.55;;;2.35;;
6834;SDS011;3455;42.150;24.734;2023-01-20T10:05:43;2.35;;;1.92;;
6834;SDS011;3455;42.150;24.734;2023-01-20T10:08:16;2.72;;;1.95;;
6834;SDS011;3455;42.150;24.734;2023-01-20T10:10:47;2.13;;;2.00;;
6834;SDS011;3455;42.150;24.734;2023-01-20T10:13:19;2.70;;;2.50;;
6834;SDS011;3455;42.150;24.734;2023-01-20T10:15:49;2.45;;;2.00;;
6834;SDS011;3455;42.150;24.734;2023-01-20T10:18:21;3.08;;;2.00;;
6834;SDS011;3455;42.150;24.734;2023-01-20T10:20:54;2.05;;;1.20;;
6834;SDS011;3455;42.150;24.734;2023-01-20T10:23:25;1.38;;;1.27;;
6834;SDS011;3455;42.150;24.734;2023-01-20T10:25:56;1.23;;;1.10;;
6834;SDS011;3455;42.150;24.734;2023-01-20T10:28:34;1.27;;;1.17;;
6834;SDS011;3455;42.150;24.734;2023-01-20T10:31:04;2.85;;;1.02;;
6834;SDS011;3455;42.150;24.734;2023-01-20T10:33:32;2.10;;;1.55;;
6834;SDS011;3455;42.150;24.734;2023-01-20T10:36:04;2.00;;;1.65;;
6834;SDS011;3455;42.150;24.734;2023-01-20T10:38:39;2.60;;;2.17;;
6834;SDS011;3455;42.150;24.734;2023-01-20T10:41:13;1.83;;;1.40;;
6834;SDS011;3455;42.150;24.734;2023-01-20T10:43:44;1.15;;;1.02;;
6834;SDS011;3455;42.150;24.734;2023-01-20T10:46:22;1.13;;;1.00;;
6834;SDS011;3455;42.150;24.734;2023-01-20T10:49:07;1.65;;;1.17;;
6834;SDS011;3455;42.150;24.734;2023-01-20T10:51:53;3.72;;;1.50;;
6834;SDS011;3455;42.150;24.734;2023-01-20T10:54:35;2.13;;;0.90;;
6834;SDS011;3455;42.150;24.734;2023-01-20T10:57:11;4.47;;;2.13;;
6834;SDS011;3455;42.150;24.734;2023-01-20T10:59:40;2.28;;;2.08;;
6834;SDS011;3455;42.150;24.734;2023-01-20T11:02:14;2.83;;;1.77;;
6834;SDS011;3455;42.150;24.734;2023-01-20T11:04:45;3.75;;;1.15;;
6834;SDS011;3455;42.150;24.734;2023-01-20T11:07:19;3.30;;;1.55;;
6834;SDS011;3455;42.150;24.734;2023-01-20T11:09:46;1.83;;;1.40;;
6834;SDS011;3455;42.150;24.734;2023-01-20T11:12:14;1.92;;;1.25;;
6834;SDS011;3455;42.150;24.734;2023-01-20T11:14:44;3.15;;;1.40;;
6834;SDS011;3455;42.150;24.734;2023-01-20T11:17:14;3.17;;;1.40;;
6834;SDS011;3455;42.150;24.734;2023-01-20T11:19:46;1.60;;;1.50;;
6834;SDS011;3455;42.150;24.734;2023-01-20T11:22:15;2.13;;;1.60;;
6834;SDS011;3455;42.150;24.734;2023-01-20T11:24:48;4.50;;;2.30;;
6834;SDS011;3455;42.150;24.734;2023-01-20T11:27:20;2.30;;;2.20;;
6834;SDS011;3455;42.150;24.734;2023-01-20T11:29:50;4.40;;;2.50;;
6834;SDS011;3455;42.150;24.734;2023-01-20T11:32:26;5.07;;;2.77;;
6834;SDS011;3455;42.150;24.734;2023-01-20T11:34:55;7.00;;;3.93;;
6834;SDS011;3455;42.150;24.734;2023-01-20T11:37:23;7.07;;;2.70;;
6834;SDS011;3455;42.150;24.734;2023-01-20T11:40:02;3.90;;;2.03;;
6834;SDS011;3455;42.150;24.734;2023-01-20T11:42:45;3.80;;;2.67;;
6834;SDS011;3455;42.150;24.734;2023-01-20T11:45:25;7.13;;;4.67;;
6834;SDS011;3455;42.150;24.734;2023-01-20T11:48:14;5.90;;;3.43;;
6834;SDS011;3455;42.150;24.734;2023-01-20T11:50:44;7.63;;;3.20;;
6834;SDS011;3455;42.150;24.734;2023-01-20T11:53:21;6.10;;;3.03;;
6834;SDS011;3455;42.150;24.734;2023-01-20T11:55:51;3.60;;;2.67;;
6834;SDS011;3455;42.150;24.734;2023-01-20T11:58:21;6.57;;;3.40;;
6834;SDS011;3455;42.150;24.734;2023-01-20T12:00:50;4.17;;;3.30;;
6834;SDS011;3455;42.150;24.734;2023-01-20T12:06:32;5.93;;;4.53;;
6834;SDS011;3455;42.150;24.734;2023-01-20T12:09:08;5.00;;;4.50;;
6834;SDS011;3455;42.150;24.734;2023-01-20T12:11:41;5.00;;;2.43;;
6834;SDS011;3455;42.150;24.734;2023-01-20T12:14:17;1.30;;;1.07;;
6834;SDS011;3455;42.150;24.734;2023-01-20T12:22:33;1.50;;;1.00;;
6834;SDS011;3455;42.150;24.734;2023-01-20T12:25:12;1.10;;;1.00;;
6834;SDS011;3455;42.150;24.734;2023-01-20T12:27:46;3.13;;;1.10;;
6834;SDS011;3455;42.150;24.734;2023-01-20T12:33:11;0.70;;;0.70;;
6834;SDS011;3455;42.150;24.734;2023-01-20T12:35:49;1.07;;;0.97;;
6834;SDS011;3455;42.150;24.734;2023-01-20T12:38:35;1.60;;;1.50;;
6834;SDS011;3455;42.150;24.734;2023-01-20T12:41:15;3.80;;;1.63;;
6834;SDS011;3455;42.150;24.734;2023-01-20T12:43:57;1.83;;;1.63;;
6834;SDS011;3455;42.150;24.734;2023-01-20T12:46:35;8.87;;;4.30;;
6834;SDS011;3455;42.150;24.734;2023-01-20T12:49:16;10.90;;;3.63;;
6834;SDS011;3455;42.150;24.734;2023-01-20T12:51:58;6.03;;;2.87;;
6834;SDS011;3455;42.150;24.734;2023-01-20T12:54:53;4.30;;;3.40;;
6834;SDS011;3455;42.150;24.734;2023-01-20T12:57:40;3.70;;;3.40;;
6834;SDS011;3455;42.150;24.734;2023-01-20T13:00:22;4.37;;;3.40;;
6834;SDS011;3455;42.150;24.734;2023-01-20T13:06:16;1.93;;;1.70;;
6834;SDS011;3455;42.150;24.734;2023-01-20T13:09:04;2.43;;;1.27;;
6834;SDS011;3455;42.150;24.734;2023-01-20T13:11:44;1.80;;;1.63;;
6834;SDS011;3455;42.150;24.734;2023-01-20T13:14:22;1.23;;;1.13;;
6834;SDS011;3455;42.150;24.734;2023-01-20T13:16:59;0.90;;;0.80;;
6834;SDS011;3455;42.150;24.734;2023-01-20T13:19:32;1.77;;;1.50;;
6834;SDS011;3455;42.150;24.734;2023-01-20T13:22:07;6.63;;;1.63;;
6834;SDS011;3455;42.150;24.734;2023-01-20T13:24:36;2.67;;;1.47;;
6834;SDS011;3455;42.150;24.734;2023-01-20T13:27:06;2.37;;;2.17;;
6834;SDS011;3455;42.150;24.734;2023-01-20T13:32:28;3.37;;;2.50;;
6834;SDS011;3455;42.150;24.734;2023-01-20T13:34:57;3.83;;;3.30;;
6834;SDS011;3455;42.150;24.734;2023-01-20T13:37:28;3.13;;;1.93;;
6834;SDS011;3455;42.150;24.734;2023-01-20T13:39:59;1.97;;;1.20;;
6834;SDS011;3455;42.150;24.734;2023-01-20T13:42:27;1.87;;;1.70;;
6834;SDS011;3455;42.150;24.734;2023-01-20T13:45:17;7.43;;;1.60;;
6834;SDS011;3455;42.150;24.734;2023-01-20T13:50:49;1.30;;;1.07;;
6834;SDS011;3455;42.150;24.734;2023-01-20T13:53:25;3.43;;;2.17;;
6834;SDS011;3455;42.150;24.734;2023-01-20T13:55:54;2.77;;;1.77;;
6834;SDS011;3455;42.150;24.734;2023-01-20T13:58:22;3.40;;;1.27;;
6834;SDS011;3455;42.150;24.734;2023-01-20T14:00:51;3.70;;;2.00;;
6834;SDS011;3455;42.150;24.734;2023-01-20T14:03:20;1.70;;;1.60;;
6834;SDS011;3455;42.150;24.734;2023-01-20T14:05:51;2.13;;;1.67;;
6834;SDS011;3455;42.150;24.734;2023-01-20T14:08:19;3.40;;;1.70;;
6834;SDS011;3455;42.150;24.734;2023-01-20T14:10:46;1.70;;;1.47;;
6834;SDS011;3455;42.150;24.734;2023-01-20T14:13:17;3.83;;;1.87;;
6834;SDS011;3455;42.150;24.734;2023-01-20T14:15:47;1.40;;;1.30;;
6834;SDS011;3455;42.150;24.734;2023-01-20T14:18:16;1.23;;;1.03;;
6834;SDS011;3455;42.150;24.734;2023-01-20T14:20:56;6.23;;;3.47;;
6834;SDS011;3455;42.150;24.734;2023-01-20T14:23:29;5.30;;;3.90;;
6834;SDS011;3455;42.150;24.734;2023-01-20T14:26:07;3.60;;;2.33;;
6834;SDS011;3455;42.150;24.734;2023-01-20T14:28:40;3.33;;;3.03;;
6834;SDS011;3455;42.150;24.734;2023-01-20T14:31:15;2.70;;;2.53;;
6834;SDS011;3455;42.150;24.734;2023-01-20T14:33:48;2.80;;;1.90;;
6834;SDS011;3455;42.150;24.734;2023-01-20T14:36:20;2.10;;;1.90;;
6834;SDS011;3455;42.150;24.734;2023-01-20T14:38:49;5.33;;;2.50;;
6834;SDS011;3455;42.150;24.734;2023-01-20T14:41:24;3.30;;;3.00;;
6834;SDS011;3455;42.150;24.734;2023-01-20T14:43:53;5.57;;;3.77;;
6834;SDS011;3455;42.150;24.734;2023-01-20T14:46:20;7.33;;;5.03;;
6834;SDS011;3455;42.150;24.734;2023-01-20T14:48:47;5.40;;;4.83;;
6834;SDS011;3455;42.150;24.734;2023-01-20T14:51:15;5.17;;;3.80;;
6834;SDS011;3455;42.150;24.734;2023-01-20T14:53:43;2.37;;;1.90;;
6834;SDS011;3455;42.150;24.734;2023-01-20T14:56:15;3.70;;;2.20;;
6834;SDS011;3455;42.150;24.734;2023-01-20T14:58:44;3.70;;;2.63;;
6834;SDS011;3455;42.150;24.734;2023-01-20T15:01:17;4.93;;;2.37;;
6834;SDS011;3455;42.150;24.734;2023-01-20T15:03:53;5.60;;;2.27;;
6834;SDS011;3455;42.150;24.734;2023-01-20T15:06:21;2.67;;;2.20;;
6834;SDS011;3455;42.150;24.734;2023-01-20T15:08:51;5.70;;;3.13;;
6834;SDS011;3455;42.150;24.734;2023-01-20T15:11:23;5.60;;;3.63;;
6834;SDS011;3455;42.150;24.734;2023-01-20T15:14:06;5.67;;;4.30;;
6834;SDS011;3455;42.150;24.734;2023-01-20T15:16:44;12.63;;;4.50;;
6834;SDS011;3455;42.150;24.734;2023-01-20T15:22:15;7.80;;;4.20;;
6834;SDS011;3455;42.150;24.734;2023-01-20T15:24:48;11.13;;;4.57;;
6834;SDS011;3455;42.150;24.734;2023-01-20T15:27:19;14.53;;;5.63;;
6834;SDS011;3455;42.150;24.734;2023-01-20T15:29:58;8.13;;;4.77;;
6834;SDS011;3455;42.150;24.734;2023-01-20T15:32:27;11.20;;;5.90;;
6834;SDS011;3455;42.150;24.734;2023-01-20T15:34:53;7.50;;;4.33;;
6834;SDS011;3455;42.150;24.734;2023-01-20T15:37:20;6.97;;;4.80;;
6834;SDS011;3455;42.150;24.734;2023-01-20T15:39:49;8.93;;;5.40;;
6834;SDS011;3455;42.150;24.734;2023-01-20T15:42:17;6.37;;;4.57;;
6834;SDS011;3455;42.150;24.734;2023-01-20T15:44:44;3.10;;;2.90;;
6834;SDS011;3455;42.150;24.734;2023-01-20T15:47:15;1.40;;;1.30;;